Terminal Aerodrome Forecast
Issued by NWS Melbourne, FL

Home | Current Version | Previous Version | Text Only | Print | Product List | Glossary On
Versions: 1 2 3 4 5 6 7 8 9 10 11 12 13 14 15 16 17 18 19 20 21
000
FTUS42 KMLB 271740
TAFMLB
TAF
KMLB 271740Z 2718/2818 05013KT P6SM VCSH SCT020 BKN035
      TEMPO 2718/2719 4SM TSRA BKN025CB
     FM280000 07007KT P6SM FEW030 SCT070
     FM281400 08011KT P6SM SCT025 BKN050=

USA.gov is the U.S. government's official web portal to all federal, state and local government web resources and services.